createdAt,value
2019-05-03T00:01:08.516Z,14.97
2019-05-03T00:03:38.160Z,14.93
2019-05-03T00:06:07.935Z,12.50
2019-05-03T00:08:37.377Z,16.83
2019-05-03T00:11:06.935Z,14.23
2019-05-03T00:13:36.565Z,10.07
2019-05-03T00:16:16.606Z,13.17
2019-05-03T00:18:47.646Z,11.43
2019-05-03T00:21:17.138Z,9.93
2019-05-03T00:23:46.610Z,11.73
2019-05-03T00:26:16.102Z,10.57
2019-05-03T00:28:45.771Z,8.73
2019-05-03T00:31:15.360Z,8.07
2019-05-03T00:33:46.479Z,10.43
2019-05-03T00:36:17.585Z,10.00
2019-05-03T00:38:47.147Z,8.53
2019-05-03T00:41:16.718Z,12.73
2019-05-03T00:43:46.198Z,8.53
2019-05-03T00:46:15.637Z,11.67
2019-05-03T00:48:45.129Z,9.20
2019-05-03T00:51:14.609Z,10.00
2019-05-03T00:53:44.090Z,9.13
2019-05-03T00:56:13.587Z,8.93
2019-05-03T00:58:56.792Z,8.93
2019-05-03T01:01:26.222Z,10.90
2019-05-03T01:03:55.710Z,9.97
2019-05-03T01:06:25.194Z,10.97
2019-05-03T01:08:54.768Z,10.57
2019-05-03T01:11:24.328Z,9.80
2019-05-03T01:13:53.844Z,11.37
2019-05-03T01:16:25.163Z,9.83
2019-05-03T01:18:54.641Z,12.10
2019-05-03T01:21:24.065Z,9.83
2019-05-03T01:23:53.614Z,11.10
2019-05-03T01:26:23.205Z,12.07
2019-05-03T01:28:55.832Z,13.17
2019-05-03T01:31:25.420Z,11.43
2019-05-03T01:33:54.974Z,14.63
2019-05-03T01:36:24.557Z,13.07
2019-05-03T01:38:55.339Z,16.73
2019-05-03T01:41:24.907Z,13.97
2019-05-03T01:43:54.467Z,10.87
2019-05-03T01:46:23.978Z,9.43
2019-05-03T01:48:56.292Z,10.90
2019-05-03T01:51:27.385Z,11.80
2019-05-03T01:53:56.797Z,13.17
2019-05-03T01:56:26.221Z,13.33
2019-05-03T01:58:55.807Z,12.60
2019-05-03T02:01:36.090Z,12.57
2019-05-03T02:04:07.311Z,14.83
2019-05-03T02:06:36.868Z,14.20
2019-05-03T02:09:08.755Z,13.30
2019-05-03T02:11:38.242Z,11.67
2019-05-03T02:14:07.791Z,11.70
2019-05-03T02:16:37.286Z,14.43
2019-05-03T02:19:06.834Z,13.43
2019-05-03T02:21:36.264Z,12.60
2019-05-03T02:24:05.853Z,16.97
2019-05-03T02:26:35.359Z,18.23
2019-05-03T02:29:04.930Z,17.43
2019-05-03T02:31:34.360Z,19.20
2019-05-03T02:34:03.942Z,19.13
2019-05-03T02:36:33.944Z,18.97
2019-05-03T02:39:09.976Z,20.03
2019-05-03T02:41:39.954Z,19.70
2019-05-03T02:44:09.620Z,18.93
2019-05-03T02:46:56.591Z,20.17
2019-05-03T02:49:39.636Z,17.17
2019-05-03T02:52:10.787Z,17.03
2019-05-03T02:54:40.364Z,17.00
2019-05-03T02:57:09.791Z,16.87
2019-05-03T02:59:39.235Z,23.17
2019-05-03T03:02:08.805Z,18.43
2019-05-03T03:04:38.449Z,17.33
2019-05-03T03:07:08.674Z,15.47
2019-05-03T03:09:38.233Z,18.87
2019-05-03T03:12:09.250Z,18.13
2019-05-03T03:14:40.274Z,18.93
2019-05-03T03:17:12.053Z,18.00
2019-05-03T03:19:45.988Z,18.00
2019-05-03T03:22:16.943Z,19.00
2019-05-03T03:24:49.400Z,18.77
2019-05-03T03:27:21.912Z,17.37
2019-05-03T03:29:55.275Z,17.97
2019-05-03T03:32:29.609Z,20.30
2019-05-03T03:35:20.192Z,17.13
2019-05-03T03:37:46.354Z,19.67
2019-05-03T03:40:18.051Z,19.60
2019-05-03T03:42:51.010Z,20.83
2019-05-03T03:45:20.502Z,19.27
2019-05-03T03:47:56.339Z,19.73
2019-05-03T03:50:26.186Z,17.60
2019-05-03T03:52:59.105Z,17.43
2019-05-03T03:55:31.884Z,20.30
2019-05-03T03:58:02.058Z,22.17
2019-05-03T04:00:31.921Z,17.90
2019-05-03T04:03:05.908Z,17.03
2019-05-03T04:05:35.801Z,21.60
2019-05-03T04:08:05.951Z,20.33
2019-05-03T04:10:35.579Z,21.70
2019-05-03T04:13:07.509Z,19.13
2019-05-03T04:15:45.355Z,21.60
2019-05-03T04:18:29.140Z,18.47
2019-05-03T04:20:58.959Z,23.53
2019-05-03T04:26:08.459Z,21.77
2019-05-03T04:29:05.348Z,24.00
2019-05-03T04:31:36.828Z,17.13
2019-05-03T04:34:06.777Z,19.57
2019-05-03T04:36:46.187Z,20.70
2019-05-03T04:39:19.999Z,23.73
2019-05-03T04:41:47.781Z,30.73
2019-05-03T04:44:18.917Z,38.40
2019-05-03T04:46:48.561Z,17.10
2019-05-03T04:49:18.100Z,19.27
2019-05-03T04:51:52.038Z,22.97
2019-05-03T04:54:25.429Z,21.33
2019-05-03T04:56:56.223Z,24.93
2019-05-03T04:59:25.847Z,21.27
2019-05-03T05:02:06.080Z,21.33
2019-05-03T05:04:35.762Z,18.53
2019-05-03T05:07:06.357Z,21.03
2019-05-03T05:12:39.105Z,24.50
2019-05-03T05:15:08.744Z,21.77
2019-05-03T05:17:40.043Z,25.17
2019-05-03T05:20:11.441Z,28.43
2019-05-03T05:22:57.672Z,21.87
2019-05-03T05:25:31.909Z,25.67
2019-05-03T05:31:08.673Z,23.27
2019-05-03T05:35:44.305Z,22.30
2019-05-03T05:36:39.523Z,17.37
2019-05-03T05:39:32.386Z,18.37
2019-05-03T05:41:55.465Z,16.87
2019-05-03T05:44:31.680Z,16.63
2019-05-03T05:47:44.756Z,14.60
2019-05-03T05:49:57.181Z,20.13
2019-05-03T05:52:26.862Z,20.60
2019-05-03T05:58:25.679Z,26.87
2019-05-03T06:01:17.746Z,26.33
2019-05-03T06:03:56.132Z,29.13
2019-05-03T06:06:30.514Z,20.37
2019-05-03T06:09:16.814Z,24.07
2019-05-03T06:11:55.432Z,21.50
2019-05-03T06:14:29.706Z,20.83
2019-05-03T06:17:05.353Z,30.07
2019-05-03T06:19:44.781Z,22.23
2019-05-03T06:22:26.104Z,22.67
2019-05-03T06:25:16.579Z,27.60
2019-05-03T06:27:46.740Z,24.73
2019-05-03T06:30:18.808Z,23.83
2019-05-03T06:32:57.012Z,27.43
2019-05-03T06:35:34.536Z,19.17
2019-05-03T06:41:19.420Z,18.77
2019-05-03T06:43:50.518Z,25.10
2019-05-03T06:46:30.099Z,26.10
2019-05-03T06:49:06.630Z,20.67
2019-05-03T06:51:31.742Z,23.57
2019-05-03T06:57:00.098Z,24.40
2019-05-03T06:59:45.135Z,22.20
2019-05-03T07:02:21.155Z,24.23
2019-05-03T07:04:59.420Z,23.70
2019-05-03T07:09:27.682Z,24.23
2019-05-03T07:12:04.479Z,24.27
2019-05-03T07:14:34.930Z,22.33
2019-05-03T07:17:05.666Z,23.60
2019-05-03T07:19:45.916Z,22.13
2019-05-03T07:22:17.979Z,20.27
2019-05-03T07:24:50.661Z,20.63
2019-05-03T07:27:21.416Z,21.27
2019-05-03T10:59:01.481Z,6.30
2019-05-03T11:04:54.898Z,4.07
2019-05-03T11:07:16.457Z,5.30
2019-05-03T11:09:49.769Z,6.43
2019-05-03T11:12:17.414Z,4.50
2019-05-03T11:14:48.221Z,5.83
2019-05-03T11:17:25.644Z,3.37
2019-05-03T11:19:55.422Z,3.63
2019-05-03T11:22:25.359Z,4.17
2019-05-03T11:28:19.451Z,3.27
2019-05-03T11:30:56.397Z,3.70
2019-05-03T11:33:36.991Z,5.03
2019-05-03T11:36:25.295Z,4.57
2019-05-03T11:38:55.860Z,6.17
2019-05-03T11:41:32.527Z,4.53
2019-05-03T11:44:00.232Z,6.07
2019-05-03T11:49:31.336Z,4.83
2019-05-03T11:52:02.439Z,7.07
2019-05-03T11:54:32.272Z,4.50
2019-05-03T11:57:05.062Z,5.03
2019-05-03T11:59:34.909Z,4.87
2019-05-03T12:02:29.012Z,6.73
2019-05-03T12:05:05.000Z,6.03
2019-05-03T12:07:39.509Z,5.63
2019-05-03T12:10:16.884Z,5.43
2019-05-03T12:12:55.359Z,6.27
2019-05-03T12:15:28.535Z,7.40
2019-05-03T12:18:06.011Z,4.27
2019-05-03T12:20:37.454Z,5.70
2019-05-03T12:23:08.113Z,4.17
2019-05-03T12:25:48.247Z,5.07
2019-05-03T12:31:40.239Z,6.43
2019-05-03T12:34:07.213Z,4.27
2019-05-03T12:36:39.170Z,4.37
2019-05-03T12:39:23.235Z,5.33
2019-05-03T12:41:39.693Z,5.43
2019-05-03T12:44:12.597Z,4.03
2019-05-03T12:47:02.472Z,3.77
2019-05-03T12:49:18.424Z,7.30
2019-05-03T12:51:49.461Z,4.73
2019-05-03T12:54:19.216Z,5.03
2019-05-03T12:57:16.734Z,5.87
2019-05-03T12:59:32.334Z,4.63
2019-05-03T13:02:08.858Z,3.57
2019-05-03T13:04:44.854Z,5.83
2019-05-03T13:07:18.878Z,4.00
2019-05-03T13:09:48.582Z,3.00
2019-05-03T13:12:21.423Z,3.93
2019-05-03T13:14:51.005Z,5.33
2019-05-03T13:17:38.060Z,3.90
2019-05-03T13:20:15.695Z,5.60
2019-05-03T13:22:45.979Z,5.43
2019-05-03T13:25:17.518Z,8.10
2019-05-03T13:28:00.580Z,6.23
2019-05-03T13:33:27.507Z,7.63
2019-05-03T13:35:58.185Z,4.40
2019-05-03T13:38:27.748Z,5.00
2019-05-03T13:40:57.955Z,6.93
2019-05-03T13:43:29.799Z,7.30
2019-05-03T13:45:59.451Z,4.70
2019-05-03T13:48:41.558Z,5.23
2019-05-03T13:51:01.538Z,7.17
2019-05-03T13:53:31.217Z,3.20
2019-05-03T13:56:00.713Z,5.80
2019-05-03T13:58:35.568Z,6.80
2019-05-03T14:01:05.567Z,3.53
2019-05-03T14:03:35.977Z,4.33
2019-05-03T14:06:08.767Z,6.57
2019-05-03T14:08:36.954Z,5.53
2019-05-03T14:11:06.514Z,3.80
2019-05-03T14:13:36.217Z,3.67
2019-05-03T14:16:06.474Z,3.73
2019-05-03T14:18:36.100Z,7.60
2019-05-03T14:21:15.107Z,4.43
2019-05-03T14:24:02.439Z,4.73
2019-05-03T14:26:32.039Z,6.63
2019-05-03T14:29:01.601Z,4.00
2019-05-03T14:31:31.274Z,4.77
2019-05-03T14:34:00.773Z,6.60
2019-05-03T14:36:31.406Z,4.07
2019-05-03T14:39:01.037Z,4.33
2019-05-03T14:41:32.224Z,3.20
2019-05-03T14:44:01.865Z,7.13
2019-05-03T14:46:33.292Z,5.07
2019-05-03T14:49:02.866Z,4.07
2019-05-03T14:51:32.405Z,5.10
2019-05-03T14:54:02.347Z,7.07
2019-05-03T14:56:34.791Z,5.20
2019-05-03T14:59:22.693Z,8.07
2019-05-03T15:01:55.195Z,5.60
2019-05-03T15:04:25.592Z,5.20
2019-05-03T15:06:57.755Z,3.40
2019-05-03T15:09:26.674Z,13.17
2019-05-03T15:11:56.197Z,7.30
2019-05-03T15:14:25.683Z,4.83
2019-05-03T15:16:55.776Z,10.87
2019-05-03T15:19:25.498Z,5.10
2019-05-03T15:21:55.143Z,4.87
2019-05-03T15:24:25.195Z,5.33
2019-05-03T15:26:55.396Z,4.80
2019-05-03T15:29:24.960Z,9.63
2019-05-03T15:31:55.334Z,4.87
2019-05-03T15:34:25.970Z,7.47
2019-05-03T15:36:55.527Z,6.50
2019-05-03T15:39:25.015Z,5.47
2019-05-03T15:41:54.650Z,7.37
2019-05-03T15:44:28.494Z,5.07
2019-05-03T15:47:02.454Z,8.70
2019-05-03T15:49:31.997Z,5.40
2019-05-03T15:52:01.689Z,7.00
2019-05-03T15:54:35.008Z,7.53
2019-05-03T15:57:02.673Z,5.23
2019-05-03T15:59:32.252Z,6.70
2019-05-03T16:02:01.821Z,7.70
2019-05-03T16:04:31.471Z,5.40
2019-05-03T16:07:01.195Z,7.30
2019-05-03T16:09:30.744Z,6.20
2019-05-03T16:12:00.236Z,7.50
2019-05-03T16:14:30.996Z,7.50
2019-05-03T16:17:00.638Z,9.70
2019-05-03T16:19:33.084Z,12.20
2019-05-03T16:22:02.588Z,11.77
2019-05-03T16:24:32.212Z,7.73
2019-05-03T16:27:04.989Z,13.03
2019-05-03T16:29:34.954Z,18.70
2019-05-03T16:32:05.215Z,15.77
2019-05-03T16:34:36.107Z,11.27
2019-05-03T16:37:05.771Z,11.97
2019-05-03T16:39:35.528Z,30.60
2019-05-03T16:42:07.033Z,20.40
2019-05-03T16:44:36.604Z,16.17
2019-05-03T16:47:07.212Z,12.13
2019-05-03T16:49:36.981Z,8.37
2019-05-03T16:52:06.614Z,10.50
2019-05-03T16:54:36.130Z,7.57
2019-05-03T16:57:05.933Z,12.03
2019-05-03T16:59:35.413Z,15.40
2019-05-03T17:02:05.786Z,9.87
2019-05-03T17:04:45.067Z,9.57
2019-05-03T17:07:32.065Z,17.83
2019-05-03T17:10:04.919Z,8.47
2019-05-03T17:12:36.117Z,7.40
2019-05-03T17:15:07.905Z,7.77
2019-05-03T17:17:37.683Z,13.63
2019-05-03T17:20:07.712Z,10.83
2019-05-03T17:22:37.277Z,10.30
2019-05-03T17:25:07.020Z,7.53
2019-05-03T17:27:36.928Z,6.43
2019-05-03T17:30:10.409Z,8.17
2019-05-03T17:32:39.953Z,25.73
2019-05-03T17:35:09.752Z,8.10
2019-05-03T17:37:39.598Z,6.77
2019-05-03T17:40:14.860Z,20.37
2019-05-03T17:43:02.354Z,7.57
2019-05-03T17:45:35.116Z,10.57
2019-05-03T17:48:05.130Z,6.97
2019-05-03T17:50:35.302Z,8.70
2019-05-03T17:53:09.405Z,9.13
2019-05-03T17:55:40.665Z,6.03
2019-05-03T17:58:16.096Z,5.47
2019-05-03T18:01:02.328Z,7.60
2019-05-03T18:03:33.674Z,6.97
2019-05-03T18:06:14.935Z,7.93
2019-05-03T18:08:46.236Z,4.80
2019-05-03T18:11:17.437Z,4.10
2019-05-03T18:13:46.964Z,3.73
2019-05-03T18:16:16.528Z,7.27
2019-05-03T18:18:46.032Z,10.87
2019-05-03T18:21:15.678Z,8.77
2019-05-03T18:23:45.590Z,6.00
2019-05-03T18:26:16.443Z,5.40
2019-05-03T18:28:45.929Z,6.23
2019-05-03T18:31:15.436Z,6.83
2019-05-03T18:33:46.575Z,5.60
2019-05-03T18:36:16.360Z,9.83
2019-05-03T18:38:46.023Z,7.83
2019-05-03T18:41:17.282Z,8.27
2019-05-03T18:44:05.197Z,11.03
2019-05-03T18:46:54.945Z,9.03
2019-05-03T18:49:24.854Z,7.13
2019-05-03T18:51:55.332Z,6.97
2019-05-03T18:54:25.388Z,7.47
2019-05-03T18:56:55.751Z,10.10
2019-05-03T18:59:27.040Z,4.63
2019-05-03T19:01:56.797Z,15.70
2019-05-03T19:04:34.710Z,16.83
2019-05-03T19:07:06.668Z,11.40
2019-05-03T19:09:40.788Z,5.63
2019-05-03T19:12:15.389Z,9.60
2019-05-03T19:14:45.476Z,7.37
2019-05-03T19:17:24.746Z,7.33
2019-05-03T19:20:00.871Z,9.10
2019-05-03T19:22:31.000Z,9.43
2019-05-03T19:25:00.693Z,8.40
2019-05-03T19:27:30.184Z,7.30
2019-05-03T19:29:59.914Z,7.27
2019-05-03T19:32:29.395Z,5.00
2019-05-03T19:34:58.935Z,8.37
2019-05-03T19:37:28.482Z,7.73
2019-05-03T19:39:58.702Z,8.67
2019-05-03T19:42:28.213Z,8.97
2019-05-03T19:44:57.689Z,7.93
2019-05-03T19:47:27.341Z,8.53
2019-05-03T19:49:56.835Z,6.20
2019-05-03T19:52:34.322Z,6.57
2019-05-03T19:55:06.895Z,6.90
2019-05-03T19:57:38.109Z,5.10
2019-05-03T20:00:09.317Z,5.47
2019-05-03T20:02:40.717Z,4.83
2019-05-03T20:05:30.395Z,7.67
2019-05-03T20:08:17.595Z,6.43
2019-05-03T20:10:47.501Z,7.17
2019-05-03T20:13:17.165Z,9.03
2019-05-03T20:15:46.721Z,5.47
2019-05-03T20:18:18.061Z,6.40
2019-05-03T20:20:47.410Z,7.87
2019-05-03T20:23:16.834Z,7.50
2019-05-03T20:25:46.329Z,8.27
2019-05-03T20:28:15.955Z,5.73
2019-05-03T20:30:45.448Z,8.70
2019-05-03T20:33:14.913Z,8.17
2019-05-03T20:35:45.165Z,6.17
2019-05-03T20:38:15.330Z,12.53
2019-05-03T20:40:45.111Z,6.00
2019-05-03T20:43:32.735Z,7.67
2019-05-03T20:46:22.290Z,7.13
2019-05-03T20:48:53.522Z,6.77
2019-05-03T20:51:25.056Z,7.00
2019-05-03T20:53:55.363Z,7.60
2019-05-03T20:56:24.935Z,4.37
2019-05-03T20:58:54.970Z,7.10
2019-05-03T21:01:25.674Z,7.80
2019-05-03T21:03:55.238Z,12.10
2019-05-03T21:06:35.195Z,6.47
2019-05-03T21:08:56.568Z,8.83
2019-05-03T21:11:26.329Z,8.50
2019-05-03T21:13:55.856Z,6.23
2019-05-03T21:16:26.997Z,7.73
2019-05-03T21:19:00.881Z,6.70
2019-05-03T21:21:37.924Z,7.27
2019-05-03T21:24:09.164Z,9.00
2019-05-03T21:26:38.716Z,6.27
2019-05-03T21:29:08.275Z,6.03
2019-05-03T21:31:37.796Z,7.53
2019-05-03T21:34:07.210Z,6.70
2019-05-03T21:36:36.635Z,11.53
2019-05-03T21:39:07.568Z,7.37
2019-05-03T21:41:38.125Z,8.07
2019-05-03T21:44:07.774Z,6.03
2019-05-03T21:46:38.897Z,5.20
2019-05-03T21:49:10.060Z,8.60
2019-05-03T21:51:39.478Z,7.53
2019-05-03T21:54:09.243Z,8.67
2019-05-03T21:56:38.745Z,6.87
2019-05-03T21:59:08.204Z,7.17
2019-05-03T22:01:39.408Z,6.83
2019-05-03T22:04:08.976Z,6.07
2019-05-03T22:06:38.648Z,9.53
2019-05-03T22:09:08.207Z,5.73
2019-05-03T22:11:39.344Z,7.97
2019-05-03T22:14:10.474Z,6.13
2019-05-03T22:16:50.691Z,7.70
2019-05-03T22:19:20.147Z,9.70
2019-05-03T22:21:51.243Z,8.80
2019-05-03T22:24:22.347Z,5.47
2019-05-03T22:26:53.585Z,9.17
2019-05-03T22:29:25.252Z,10.07
2019-05-03T22:31:54.840Z,7.10
2019-05-03T22:34:25.740Z,5.77
2019-05-03T22:36:55.929Z,10.17
2019-05-03T22:39:25.429Z,6.80
2019-05-03T22:41:54.976Z,6.40
2019-05-03T22:44:25.330Z,7.50
2019-05-03T22:46:55.299Z,8.67
2019-05-03T22:49:25.988Z,8.10
2019-05-03T22:51:55.741Z,6.97
2019-05-03T22:54:25.330Z,6.70
2019-05-03T22:56:55.600Z,7.10
2019-05-03T22:59:25.562Z,5.70
2019-05-03T23:01:55.077Z,6.00
2019-05-03T23:04:25.236Z,9.80
2019-05-03T23:06:55.677Z,5.90
2019-05-03T23:09:26.247Z,6.37
2019-05-03T23:11:55.834Z,6.30
2019-05-03T23:14:25.787Z,8.63
2019-05-03T23:16:55.353Z,7.27
2019-05-03T23:19:24.850Z,5.83
2019-05-03T23:22:11.201Z,9.10
2019-05-03T23:24:40.623Z,8.03
2019-05-03T23:27:10.122Z,7.93
2019-05-03T23:29:39.569Z,6.60
2019-05-03T23:32:09.165Z,5.80
2019-05-03T23:34:38.728Z,8.07
2019-05-03T23:37:08.197Z,9.30
2019-05-03T23:39:37.938Z,7.93
2019-05-03T23:42:07.542Z,9.50
2019-05-03T23:44:37.070Z,5.93
2019-05-03T23:47:08.267Z,8.00
2019-05-03T23:49:37.868Z,9.03
2019-05-03T23:52:27.189Z,5.47
2019-05-03T23:55:02.385Z,7.37
2019-05-03T23:57:32.020Z,7.57
